Terminal Aerodrome Forecast
Issued by NWS Sterling, VA

Current Version | Previous Version | Graphics & Text | Print | Product List | Glossary On
Versions: 1 2 3 4 5 6 7 8 9 10 11 12 13 14 15 16 17 18 19 20 21
000
FTUS41 KLWX 222000 AAA
TAFDCA
TAF AMD
KDCA 222050Z 2221/2318 33017KT 6SM -SHRA OVC025
     FM222200 33017KT P6SM SCT015 OVC025
     FM230100 33017KT P6SM SCT025 BKN045=

USA.gov is the U.S. government's official web portal to all federal, state and local government web resources and services.